Time;durP1;ratioP1;P1;durP2;ratioP2;P2;SDS_P1;SDS_P2;PMS_P1;PMS_P2;Temp;Humidity;BMP_temperature;BMP_pressure;BME280_temperature;BME280_humidity;BME280_pressure;Samples;Min_cycle;Max_cycle;Signal;HPM_P1;HPM_P2
2021/11/12 00:14:25;;;;;;;23.52;14.07;;;10.60;96.10;;;;;;4975867;28;20034;-76
2021/11/12 00:16:54;;;;;;;23.73;13.48;;;10.60;96.10;;;;;;4975082;28;20121;-76
2021/11/12 00:19:20;;;;;;;28.73;15.27;;;10.60;96.20;;;;;;4974060;28;20034;-76
2021/11/12 00:21:46;;;;;;;27.27;12.65;;;10.60;96.10;;;;;;4974595;28;20023;-76
2021/11/12 00:24:12;;;;;;;28.55;13.82;;;10.60;96.10;;;;;;4974140;28;20113;-77
2021/11/12 00:26:38;;;;;;;28.15;13.88;;;10.60;96.10;;;;;;4974416;28;20026;-76
2021/11/12 00:29:07;;;;;;;23.90;13.35;;;10.60;96.20;;;;;;4974443;28;20453;-77
2021/11/12 00:32:00;;;;;;;22.30;13.02;;;10.60;96.20;;;;;;4973968;28;20027;-77
2021/11/12 00:42:11;;;;;;;23.45;12.55;;;10.60;96.20;;;;;;4975018;28;20535;-77
2021/11/12 00:44:47;;;;;;;25.25;13.02;;;10.60;96.20;;;;;;4973911;28;20030;-76
2021/11/12 00:47:25;;;;;;;25.33;12.98;;;10.60;96.10;;;;;;4975109;28;20061;-76
2021/11/12 00:55:17;;;;;;;22.67;12.45;;;10.60;96.20;;;;;;4975081;28;20031;-77
2021/11/12 00:57:43;;;;;;;24.30;12.85;;;10.60;96.20;;;;;;4975020;28;20043;-77
2021/11/12 01:00:11;;;;;;;22.80;13.35;;;10.60;96.20;;;;;;4973825;28;20129;-77
2021/11/12 01:02:37;;;;;;;21.65;11.93;;;10.60;96.20;;;;;;4974642;28;20062;-76
2021/11/12 01:05:04;;;;;;;21.00;12.18;;;10.60;96.20;;;;;;4975065;28;20027;-76
2021/11/12 01:07:30;;;;;;;25.85;13.57;;;10.60;96.20;;;;;;4974230;28;20530;-76
2021/11/12 01:09:57;;;;;;;23.77;13.00;;;10.60;96.20;;;;;;4973643;28;20027;-76
2021/11/12 01:12:23;;;;;;;24.77;14.02;;;10.60;96.20;;;;;;4974558;28;20037;-76
2021/11/12 01:14:48;;;;;;;27.80;13.18;;;10.50;96.20;;;;;;4974836;28;20073;-76
2021/11/12 01:17:14;;;;;;;24.38;13.73;;;10.60;96.20;;;;;;4975165;28;20026;-76
2021/11/12 01:19:40;;;;;;;23.42;13.25;;;10.60;96.20;;;;;;4973364;28;20062;-76
2021/11/12 01:22:06;;;;;;;23.30;12.48;;;10.60;96.20;;;;;;4974717;28;20035;-76
2021/11/12 01:24:32;;;;;;;23.45;13.57;;;10.60;96.20;;;;;;4973974;28;20027;-76
2021/11/12 01:26:57;;;;;;;24.10;13.38;;;10.60;96.20;;;;;;4990430;28;20037;-77
2021/11/12 01:29:23;;;;;;;24.55;12.32;;;10.60;96.20;;;;;;4993859;28;20379;-77
2021/11/12 01:31:49;;;;;;;29.58;13.75;;;10.60;96.20;;;;;;4992853;28;20026;-77
2021/11/12 01:34:15;;;;;;;28.10;14.77;;;10.60;96.20;;;;;;4993560;28;20391;-76
2021/11/12 01:36:44;;;;;;;24.48;12.07;;;10.60;96.20;;;;;;4993894;28;20022;-76
2021/11/12 01:39:21;;;;;;;23.23;11.57;;;10.60;96.20;;;;;;4992152;28;20030;-75
2021/11/12 01:41:50;;;;;;;24.08;12.80;;;10.60;96.20;;;;;;4992569;28;20034;-76
2021/11/12 01:44:18;;;;;;;26.10;13.93;;;10.60;96.20;;;;;;4993673;28;20022;-75
2021/11/12 01:49:32;;;;;;;28.52;14.10;;;10.60;96.20;;;;;;4993277;28;20114;-76
2021/11/12 01:59:49;;;;;;;24.20;13.93;;;10.60;96.20;;;;;;4993415;28;20065;-75
2021/11/12 02:02:16;;;;;;;27.45;13.07;;;10.60;96.30;;;;;;4993202;28;20033;-75
2021/11/12 02:04:42;;;;;;;25.50;14.00;;;10.60;96.30;;;;;;4991412;28;20053;-76
2021/11/12 02:07:07;;;;;;;25.27;13.30;;;10.50;96.30;;;;;;4993385;28;20057;-76
2021/11/12 02:09:34;;;;;;;23.30;13.07;;;10.50;96.30;;;;;;4992985;28;20073;-75
2021/11/12 02:12:12;;;;;;;25.98;12.82;;;10.50;96.30;;;;;;4993304;28;20029;-76
2021/11/12 02:14:38;;;;;;;27.08;13.50;;;10.50;96.30;;;;;;4993087;28;20026;-76
2021/11/12 02:17:13;;;;;;;25.40;13.63;;;10.40;96.40;;;;;;4992926;28;20535;-76
2021/11/12 02:19:48;;;;;;;25.13;12.82;;;10.40;96.40;;;;;;4992837;28;20222;-76
2021/11/12 02:22:15;;;;;;;29.08;13.43;;;10.40;96.40;;;;;;4992043;28;20081;-76
2021/11/12 02:24:54;;;;;;;21.92;12.43;;;10.40;96.40;;;;;;4991365;28;20363;-76
2021/11/12 02:27:23;;;;;;;23.73;12.93;;;10.40;96.40;;;;;;4993290;28;20454;-75
2021/11/12 02:29:52;;;;;;;26.30;12.85;;;10.30;96.70;;;;;;4992130;28;20022;-75
2021/11/12 02:32:23;;;;;;;26.10;13.80;;;10.30;96.50;;;;;;4993184;28;20110;-76
2021/11/12 02:34:51;;;;;;;26.55;12.93;;;10.30;96.50;;;;;;4993251;28;20022;-76
2021/11/12 02:37:18;;;;;;;21.70;11.90;;;10.20;96.50;;;;;;4994492;28;20019;-75
2021/11/12 02:39:45;;;;;;;31.05;13.43;;;10.20;96.50;;;;;;4993292;28;20121;-75
2021/11/12 02:42:12;;;;;;;22.13;12.27;;;10.20;96.60;;;;;;4994870;28;20034;-76
2021/11/12 02:44:39;;;;;;;20.85;11.82;;;10.20;96.60;;;;;;4994611;28;20030;-74
2021/11/12 02:47:04;;;;;;;22.65;12.27;;;10.10;96.60;;;;;;4993486;28;20027;-77
2021/11/12 02:49:30;;;;;;;22.77;11.60;;;10.10;96.60;;;;;;4994884;28;20037;-77
2021/11/12 02:51:56;;;;;;;26.52;12.80;;;10.10;96.60;;;;;;4994718;28;20033;-75
2021/11/12 02:54:22;;;;;;;24.40;11.63;;;10.10;96.60;;;;;;4992969;28;20027;-75
2021/11/12 02:56:51;;;;;;;24.90;11.93;;;10.00;96.60;;;;;;4992928;28;20481;-76
2021/11/12 02:59:17;;;;;;;25.42;13.27;;;10.00;96.60;;;;;;4991299;28;20082;-76
2021/11/12 03:01:46;;;;;;;23.88;11.45;;;10.00;96.50;;;;;;4992353;28;20180;-76
2021/11/12 03:04:14;;;;;;;25.58;12.18;;;10.00;96.50;;;;;;4992128;28;20021;-75
2021/11/12 03:06:41;;;;;;;25.67;13.20;;;10.00;96.50;;;;;;4996255;28;20023;-75
2021/11/12 03:09:10;;;;;;;25.08;13.48;;;10.00;96.50;;;;;;4996649;28;20022;-76
2021/11/12 03:11:37;;;;;;;24.75;12.63;;;10.00;96.60;;;;;;4994827;28;20109;-75
2021/11/12 03:14:06;;;;;;;27.10;12.60;;;9.90;96.50;;;;;;4996205;28;20045;-75
2021/11/12 03:16:33;;;;;;;23.35;11.63;;;9.90;96.60;;;;;;4995999;28;20030;-76
2021/11/12 03:19:00;;;;;;;25.20;12.80;;;9.80;96.50;;;;;;4995120;28;20033;-75
2021/11/12 03:21:27;;;;;;;25.88;12.50;;;9.90;96.60;;;;;;4995706;28;20030;-75
2021/11/12 03:24:01;;;;;;;25.83;13.68;;;9.90;96.60;;;;;;4996255;28;20046;-75
2021/11/12 03:29:27;;;;;;;29.90;12.30;;;9.80;96.50;;;;;;4996214;28;20467;-75
2021/11/12 04:02:31;;;;;;;27.85;12.95;;;9.70;96.30;;;;;;4995446;28;20045;-76
2021/11/12 04:05:09;;;;;;;19.08;10.38;;;9.60;96.20;;;;;;4994365;28;20031;-76
2021/11/12 04:21:26;;;;;;;23.60;12.23;;;9.40;96.20;;;;;;4995000;28;20050;-76
2021/11/12 04:40:46;;;;;;;23.30;12.77;;;8.80;96.50;;;;;;5004853;28;20050;-76
2021/11/12 05:50:20;;;;;;;18.52;9.85;;;7.50;96.60;;;;;;4971777;28;20101;-78
2021/11/12 05:55:30;;;;;;;20.85;10.63;;;7.50;96.60;;;;;;4971329;28;20178;-77
2021/11/12 05:57:58;;;;;;;20.27;9.65;;;7.50;96.60;;;;;;4970939;28;20129;-77
2021/11/12 06:00:24;;;;;;;16.98;8.32;;;7.40;96.60;;;;;;4971376;28;20042;-72
2021/11/12 06:02:50;;;;;;;17.75;9.88;;;7.40;96.50;;;;;;4972762;28;20103;-73
2021/11/12 06:05:17;;;;;;;17.35;9.18;;;7.40;96.50;;;;;;4973702;28;20030;-73
2021/11/12 06:07:44;;;;;;;15.30;8.63;;;7.40;96.60;;;;;;4971973;28;20025;-73
2021/11/12 06:10:10;;;;;;;15.25;8.55;;;7.30;96.60;;;;;;4973743;28;20030;-73
2021/11/12 06:12:36;;;;;;;16.05;9.00;;;7.30;96.60;;;;;;4973778;28;20383;-73
2021/11/12 06:15:01;;;;;;;15.23;8.70;;;7.30;96.60;;;;;;4972454;28;20022;-73
2021/11/12 06:17:27;;;;;;;16.05;8.68;;;7.30;96.60;;;;;;4973613;28;20451;-73
2021/11/12 06:19:53;;;;;;;18.67;8.50;;;7.20;96.60;;;;;;4973323;28;20530;-73
2021/11/12 06:22:19;;;;;;;18.40;9.48;;;7.20;96.60;;;;;;4988533;28;20452;-74
2021/11/12 06:24:44;;;;;;;16.50;9.05;;;7.20;96.60;;;;;;4972880;28;20023;-73
2021/11/12 06:27:10;;;;;;;17.25;9.18;;;7.20;96.60;;;;;;4973763;28;20026;-74
2021/11/12 06:29:36;;;;;;;16.63;8.90;;;7.20;96.60;;;;;;4973774;28;20026;-74
2021/11/12 06:32:03;;;;;;;17.67;8.43;;;7.20;96.60;;;;;;4973633;28;20031;-74
2021/11/12 06:34:29;;;;;;;14.13;8.20;;;7.10;96.60;;;;;;4988622;28;20419;-73
2021/11/12 06:36:55;;;;;;;15.88;9.05;;;7.10;96.60;;;;;;4988046;28;20027;-74
2021/11/12 06:39:21;;;;;;;17.27;9.13;;;7.10;96.60;;;;;;4974376;28;20490;-73
2021/11/12 06:49:34;;;;;;;17.30;9.23;;;7.00;96.60;;;;;;5006034;28;20035;-73
2021/11/12 06:51:59;;;;;;;14.30;7.72;;;7.00;96.50;;;;;;4976920;28;20022;-73
2021/11/12 06:54:25;;;;;;;14.95;8.30;;;7.00;96.50;;;;;;4976055;28;20023;-73
2021/11/12 06:56:51;;;;;;;15.30;8.00;;;7.00;96.50;;;;;;4991623;28;20113;-73
2021/11/12 06:59:17;;;;;;;18.48;9.10;;;6.90;96.50;;;;;;4975463;28;20454;-73
2021/11/12 07:01:43;;;;;;;14.65;8.27;;;6.90;96.50;;;;;;4976543;28;20102;-73
2021/11/12 07:04:09;;;;;;;16.52;9.23;;;6.90;96.40;;;;;;4977202;28;20033;-74
2021/11/12 07:06:36;;;;;;;18.25;9.10;;;6.90;96.50;;;;;;4976859;28;20063;-74
2021/11/12 07:09:05;;;;;;;16.73;8.00;;;6.90;96.40;;;;;;4974978;28;20039;-74
2021/11/12 07:11:31;;;;;;;16.23;9.32;;;6.90;96.50;;;;;;4977015;28;20026;-73
2021/11/12 07:13:57;;;;;;;17.20;8.50;;;6.90;96.40;;;;;;4975411;28;20074;-73
2021/11/12 07:16:22;;;;;;;16.33;8.85;;;6.80;96.40;;;;;;4976657;28;20023;-73
2021/11/12 07:18:49;;;;;;;16.85;9.55;;;6.80;96.40;;;;;;4976533;28;20065;-74
2021/11/12 07:21:14;;;;;;;15.35;8.13;;;6.80;96.40;;;;;;4975441;28;20026;-74
2021/11/12 07:23:40;;;;;;;15.57;10.00;;;6.70;96.40;;;;;;4991413;28;20031;-74
2021/11/12 07:26:06;;;;;;;18.05;8.65;;;6.70;96.40;;;;;;4976926;28;20027;-75
2021/11/12 07:28:32;;;;;;;15.80;8.40;;;6.70;96.30;;;;;;4977156;28;20039;-75
2021/11/12 07:30:58;;;;;;;16.52;8.10;;;6.70;96.30;;;;;;4991603;28;20461;-75
2021/11/12 07:33:24;;;;;;;18.23;8.18;;;6.70;96.30;;;;;;4976900;28;20443;-74
2021/11/12 07:38:25;;;;;;;11.80;7.10;;;6.70;96.30;;;;;;4976520;28;20121;-72
2021/11/12 07:49:08;;;;;;;16.15;8.55;;;6.70;96.30;;;;;;4985088;28;20035;-73
2021/11/12 07:51:36;;;;;;;17.52;8.98;;;6.60;96.20;;;;;;4991168;28;20497;-73
2021/11/12 07:54:03;;;;;;;17.27;8.82;;;6.60;96.20;;;;;;4975846;28;20162;-74
2021/11/12 07:56:29;;;;;;;17.67;8.60;;;6.60;96.20;;;;;;4976384;28;20031;-73
2021/11/12 07:58:55;;;;;;;13.98;8.55;;;6.60;96.20;;;;;;4975554;28;20483;-74
2021/11/12 08:01:21;;;;;;;14.60;7.70;;;6.60;96.20;;;;;;4990999;28;20019;-74
2021/11/12 08:03:51;;;;;;;15.40;8.32;;;6.70;96.20;;;;;;4975648;28;20030;-74
2021/11/12 08:06:18;;;;;;;15.63;8.52;;;6.60;96.20;;;;;;4976121;28;20037;-73
2021/11/12 08:08:54;;;;;;;17.70;8.27;;;6.60;96.20;;;;;;4990700;28;20021;-73
2021/11/12 08:11:26;;;;;;;16.45;8.90;;;6.70;96.20;;;;;;4976249;28;20066;-73
2021/11/12 08:19:57;;;;;;;19.77;9.23;;;6.70;96.20;;;;;;4975268;28;20058;-74
2021/11/12 08:29:55;;;;;;;14.82;7.70;;;6.70;96.00;;;;;;4975690;28;20118;-75
2021/11/12 08:42:45;;;;;;;20.80;9.75;;;6.80;96.00;;;;;;4975499;28;20045;-74
2021/11/12 08:45:18;;;;;;;15.87;7.53;;;6.80;96.00;;;;;;4974946;28;20066;-73
2021/11/12 08:47:49;;;;;;;19.15;9.75;;;6.90;96.00;;;;;;4975510;28;20734;-74
2021/11/12 08:50:18;;;;;;;16.63;9.02;;;6.90;95.90;;;;;;4975208;28;20031;-73
2021/11/12 08:52:46;;;;;;;15.23;9.02;;;6.90;95.90;;;;;;4990110;28;20027;-73
2021/11/12 08:55:14;;;;;;;14.85;8.20;;;6.90;95.90;;;;;;4974835;28;20023;-74
2021/11/12 08:57:40;;;;;;;16.58;9.27;;;6.90;95.90;;;;;;4975101;28;20070;-73
2021/11/12 09:00:08;;;;;;;18.80;9.50;;;6.90;95.90;;;;;;4974585;28;20035;-74
2021/11/12 09:02:34;;;;;;;17.58;9.43;;;6.90;95.80;;;;;;4974475;28;20118;-73
2021/11/12 09:04:59;;;;;;;18.67;9.43;;;6.90;95.80;;;;;;4989406;28;20061;-74
2021/11/12 09:07:25;;;;;;;17.20;9.93;;;6.90;95.80;;;;;;4974893;28;20118;-74
2021/11/12 09:09:55;;;;;;;19.13;10.25;;;7.00;95.80;;;;;;4974504;28;20164;-74
2021/11/12 09:12:23;;;;;;;22.25;11.40;;;7.00;95.80;;;;;;4974953;28;20535;-74
2021/11/12 09:14:50;;;;;;;19.75;10.48;;;7.00;95.80;;;;;;4974295;28;20062;-75
2021/11/12 09:17:19;;;;;;;24.20;10.52;;;7.00;95.80;;;;;;4973463;28;20019;-74
2021/11/12 09:19:50;;;;;;;18.17;9.85;;;7.00;95.80;;;;;;4974701;28;20034;-74
2021/11/12 09:22:19;;;;;;;24.88;10.93;;;7.00;95.80;;;;;;4974782;28;20114;-74
2021/11/12 09:24:45;;;;;;;20.67;10.05;;;7.00;95.80;;;;;;4974707;28;20019;-74
2021/11/12 09:27:12;;;;;;;22.80;10.30;;;7.10;95.80;;;;;;4974115;28;20591;-74
2021/11/12 09:29:38;;;;;;;20.65;10.15;;;7.10;95.80;;;;;;4974076;28;20106;-75
2021/11/12 09:32:05;;;;;;;20.50;10.13;;;7.10;95.70;;;;;;4988983;28;20057;-74
2021/11/12 09:34:34;;;;;;;24.77;11.98;;;7.10;95.70;;;;;;4974376;28;20031;-73
2021/11/12 09:37:01;;;;;;;22.35;12.27;;;7.20;95.70;;;;;;4973887;28;20059;-74
2021/11/12 09:39:28;;;;;;;24.55;11.65;;;7.20;95.70;;;;;;5005601;28;20049;-74
2021/11/12 09:41:54;;;;;;;28.52;13.27;;;7.20;95.70;;;;;;4973796;28;20051;-74
2021/11/12 09:44:20;;;;;;;22.05;9.93;;;7.20;95.60;;;;;;4974224;28;20109;-74
2021/11/12 09:46:48;;;;;;;26.70;12.27;;;7.20;95.60;;;;;;4972958;28;20456;-74
2021/11/12 09:49:14;;;;;;;33.08;14.27;;;7.20;95.60;;;;;;5004960;28;20102;-74
2021/11/12 09:51:40;;;;;;;24.10;10.93;;;7.20;95.60;;;;;;5005436;28;20388;-74
2021/11/12 09:54:06;;;;;;;26.65;11.90;;;7.30;95.70;;;;;;4973255;28;20050;-74
2021/11/12 09:56:33;;;;;;;22.88;11.20;;;7.30;95.60;;;;;;4973875;28;20387;-73
2021/11/12 09:58:59;;;;;;;19.58;11.23;;;7.40;95.60;;;;;;4972963;28;20415;-73
2021/11/12 10:01:28;;;;;;;26.10;11.48;;;7.40;95.60;;;;;;4974171;28;20023;-73
2021/11/12 10:03:54;;;;;;;21.50;12.05;;;7.50;95.60;;;;;;4973581;28;20023;-74
2021/11/12 10:06:26;;;;;;;25.48;11.88;;;7.50;95.50;;;;;;4988792;28;20089;-73
2021/11/12 10:08:54;;;;;;;25.80;12.40;;;7.50;95.50;;;;;;4974065;28;20047;-74
2021/11/12 10:11:29;;;;;;;24.70;11.30;;;7.50;95.40;;;;;;4973826;28;20085;-73
2021/11/12 10:14:04;;;;;;;23.80;11.52;;;7.60;95.70;;;;;;4972654;28;20030;-74
2021/11/12 10:16:35;;;;;;;23.73;11.25;;;7.60;95.40;;;;;;4988672;28;20033;-74
2021/11/12 10:19:01;;;;;;;;;;;7.60;95.40;;;;;;4973751;28;20467;-74
2021/11/12 10:21:29;;;;;;;23.48;11.70;;;7.60;95.30;;;;;;4973694;28;19917;-74
2021/11/12 10:24:19;;;;;;;25.67;11.52;;;7.70;95.30;;;;;;4973201;28;20034;-74
2021/11/12 10:26:50;;;;;;;21.95;10.90;;;7.70;95.30;;;;;;4973880;28;20027;-73
2021/11/12 10:29:20;;;;;;;22.38;9.75;;;7.70;95.20;;;;;;4973015;28;20023;-74
2021/11/12 10:31:53;;;;;;;24.05;10.65;;;7.70;95.20;;;;;;4973622;28;20030;-74
2021/11/12 10:34:22;;;;;;;20.85;10.70;;;7.80;95.20;;;;;;5004645;28;20065;-72
2021/11/12 10:36:58;;;;;;;23.80;12.25;;;7.90;95.10;;;;;;4973517;28;20033;-74
2021/11/12 10:39:45;;;;;;;23.98;12.55;;;8.00;95.10;;;;;;4973198;28;20376;-74
2021/11/12 10:42:14;;;;;;;23.23;11.43;;;8.00;95.00;;;;;;4973386;28;20038;-74
2021/11/12 10:44:56;;;;;;;27.05;12.35;;;8.20;94.90;;;;;;4973436;28;20174;-74
2021/11/12 10:47:24;;;;;;;22.85;10.75;;;8.30;94.80;;;;;;4973643;28;20030;-73
2021/11/12 10:50:00;;;;;;;24.83;10.70;;;8.40;94.70;;;;;;4973099;28;20110;-73
2021/11/12 10:52:30;;;;;;;21.02;10.52;;;8.60;94.70;;;;;;4973685;28;20034;-73
2021/11/12 10:55:02;;;;;;;24.15;12.18;;;8.70;94.60;;;;;;4982198;28;20610;-74
2021/11/12 10:58:01;;;;;;;26.90;12.45;;;8.90;94.50;;;;;;4992300;28;20032;-74
2021/11/12 11:00:47;;;;;;;22.95;10.95;;;9.00;94.40;;;;;;4994263;28;20038;-79
2021/11/12 11:03:15;;;;;;;21.88;11.20;;;9.20;94.30;;;;;;4992714;28;20022;-74
2021/11/12 11:05:55;;;;;;;29.13;13.65;;;9.30;94.20;;;;;;4992731;28;20022;-76
2021/11/12 11:08:29;;;;;;;22.98;12.32;;;9.50;94.10;;;;;;4990555;28;20114;-75
2021/11/12 11:11:02;;;;;;;27.15;12.40;;;9.60;94.00;;;;;;5024048;28;20117;-75
2021/11/12 11:13:33;;;;;;;26.08;12.60;;;9.70;93.90;;;;;;4991062;28;20019;-75
2021/11/12 11:16:17;;;;;;;21.50;11.15;;;9.80;94.00;;;;;;4990932;28;20066;-75
2021/11/12 11:18:43;;;;;;;21.95;10.32;;;9.90;93.90;;;;;;4992609;28;20030;-75
2021/11/12 11:24:08;;;;;;;28.10;13.82;;;10.00;93.50;;;;;;4992438;28;20490;-75
2021/11/12 11:26:48;;;;;;;32.80;15.10;;;10.00;93.40;;;;;;4995037;28;20037;-74
2021/11/12 11:29:25;;;;;;;26.95;14.27;;;10.00;93.10;;;;;;4995640;28;20084;-74
2021/11/12 11:31:54;;;;;;;29.17;15.32;;;10.00;93.00;;;;;;4994991;28;20033;-75
2021/11/12 11:34:20;;;;;;;30.98;15.05;;;10.00;92.90;;;;;;4995685;28;20513;-75
2021/11/12 11:36:49;;;;;;;26.15;14.55;;;10.00;92.90;;;;;;4996235;28;20072;-75
2021/11/12 11:39:18;;;;;;;25.65;13.10;;;10.00;92.90;;;;;;4994122;28;20019;-75
2021/11/12 11:41:45;;;;;;;29.52;13.32;;;10.20;92.90;;;;;;4995848;28;20501;-75
2021/11/12 11:44:15;;;;;;;25.23;13.50;;;10.30;92.70;;;;;;4994230;28;20125;-75
2021/11/12 11:46:45;;;;;;;26.25;13.55;;;10.30;92.60;;;;;;4994647;28;20076;-75
2021/11/12 11:49:13;;;;;;;26.77;12.55;;;10.40;92.60;;;;;;4995362;28;20111;-75
2021/11/12 11:51:50;;;;;;;24.95;11.80;;;10.40;92.60;;;;;;4995656;28;20035;-74
2021/11/12 11:54:17;;;;;;;24.02;11.48;;;10.50;92.60;;;;;;4995022;28;20165;-75
2021/11/12 11:56:52;;;;;;;25.38;12.35;;;10.50;92.60;;;;;;4995474;28;20395;-75
2021/11/12 11:59:19;;;;;;;27.55;12.68;;;10.50;92.40;;;;;;4995539;28;20054;-74
2021/11/12 12:01:48;;;;;;;25.48;12.23;;;10.60;92.40;;;;;;4995773;28;20517;-74
2021/11/12 12:04:14;;;;;;;28.58;13.40;;;10.50;92.50;;;;;;4994108;28;20038;-75
2021/11/12 12:06:42;;;;;;;24.67;12.35;;;10.50;92.50;;;;;;4994763;28;20027;-74
2021/11/12 12:09:14;;;;;;;32.17;13.85;;;10.50;92.50;;;;;;4993893;28;20030;-75
2021/11/12 12:11:49;;;;;;;27.05;13.32;;;10.40;92.40;;;;;;4995424;28;20026;-75
2021/11/12 12:14:25;;;;;;;27.98;13.27;;;10.50;92.40;;;;;;4994786;28;20112;-75
2021/11/12 12:17:04;;;;;;;28.25;13.95;;;10.40;92.40;;;;;;4993412;28;20034;-75
2021/11/12 13:25:23;;;;;;;24.92;12.23;;;10.20;92.70;;;;;;4993553;28;20054;-75
2021/11/12 13:27:50;;;;;;;28.85;12.90;;;10.20;92.80;;;;;;4993919;28;20116;-75
2021/11/12 13:30:27;;;;;;;23.58;12.15;;;10.20;92.80;;;;;;4992076;28;20030;-75
2021/11/12 13:32:53;;;;;;;26.42;12.93;;;10.20;92.80;;;;;;4992873;28;20023;-75
2021/11/12 13:35:30;;;;;;;27.60;13.77;;;10.20;92.80;;;;;;4993328;28;20442;-74
2021/11/12 13:37:55;;;;;;;24.55;12.05;;;10.20;92.80;;;;;;4993707;28;20106;-75
2021/11/12 13:40:21;;;;;;;21.42;10.00;;;10.10;92.80;;;;;;4991916;28;20121;-74
2021/11/12 13:42:48;;;;;;;29.50;12.70;;;10.20;92.90;;;;;;4992423;28;20466;-75
2021/11/12 13:45:17;;;;;;;23.63;11.13;;;10.20;92.90;;;;;;4991857;28;20034;-75
2021/11/12 13:47:44;;;;;;;29.55;12.65;;;10.20;92.90;;;;;;4992232;28;20019;-75
2021/11/12 13:50:11;;;;;;;23.27;11.35;;;10.10;92.90;;;;;;4992841;28;20022;-76
2021/11/12 13:52:42;;;;;;;20.95;11.15;;;10.10;92.90;;;;;;4993596;28;20085;-74
2021/11/12 13:55:11;;;;;;;;;;;10.10;93.00;;;;;;4992997;28;20025;-74
2021/11/12 13:57:37;;;;;;;28.73;12.07;;;10.10;93.00;;;;;;4993374;28;20372;-74
2021/11/12 14:00:09;;;;;;;20.40;10.45;;;10.00;92.90;;;;;;4993750;28;20049;-74
2021/11/12 14:03:00;;;;;;;25.70;11.88;;;10.00;93.00;;;;;;4992991;28;20030;-74
2021/11/12 14:05:27;;;;;;;24.48;12.30;;;10.00;93.00;;;;;;4992998;28;20026;-74
2021/11/12 14:08:12;;;;;;;25.60;12.48;;;10.00;93.00;;;;;;4993242;28;20023;-74
2021/11/12 14:10:51;;;;;;;25.33;12.02;;;10.00;93.10;;;;;;4992284;28;20426;-75
2021/11/12 14:13:19;;;;;;;26.20;12.60;;;9.90;93.10;;;;;;4992829;28;20125;-74
2021/11/12 14:16:05;;;;;;;24.55;12.10;;;9.90;93.10;;;;;;4991880;28;20057;-74
2021/11/12 14:21:29;;;;;;;26.88;13.02;;;9.90;93.20;;;;;;4993018;28;20069;-74
2021/11/12 14:24:53;;;;;;;32.33;11.95;;;9.80;93.20;;;;;;4991856;28;20034;-74
2021/11/12 14:27:10;;;;;;;25.40;12.07;;;9.80;93.30;;;;;;4994737;28;20493;-75
2021/11/12 14:40:45;;;;;;;28.33;13.32;;;9.70;93.50;;;;;;4992539;28;20030;-75
2021/11/12 14:43:30;;;;;;;25.70;12.27;;;9.70;93.50;;;;;;4991694;28;20064;-74
2021/11/12 14:46:21;;;;;;;27.08;12.13;;;9.60;93.50;;;;;;4993037;28;20019;-75
2021/11/12 14:51:20;;;;;;;28.30;12.13;;;9.50;93.60;;;;;;4992293;28;20089;-74
2021/11/12 14:56:18;;;;;;;25.05;11.60;;;9.50;93.70;;;;;;4992827;28;20041;-74
2021/11/12 14:58:47;;;;;;;25.38;11.50;;;9.50;93.70;;;;;;4992570;28;20096;-74
2021/11/12 15:01:19;;;;;;;27.30;12.10;;;9.50;93.70;;;;;;4995040;28;20030;-74
2021/11/12 15:03:46;;;;;;;30.27;13.02;;;9.50;93.80;;;;;;4996726;28;20109;-74
2021/11/12 15:06:15;;;;;;;24.33;11.90;;;9.40;93.80;;;;;;4996698;28;20113;-74
2021/11/12 15:08:50;;;;;;;25.80;12.85;;;9.50;93.80;;;;;;4996307;28;20030;-75
2021/11/12 15:11:18;;;;;;;24.30;12.57;;;9.50;93.90;;;;;;4996171;28;20375;-75
2021/11/12 15:13:46;;;;;;;21.55;10.68;;;9.40;93.80;;;;;;4996429;28;20025;-75
2021/11/12 15:16:18;;;;;;;25.52;12.32;;;9.50;93.90;;;;;;4996747;28;20058;-75
2021/11/12 15:18:44;;;;;;;23.80;12.07;;;9.40;93.90;;;;;;4996412;28;20465;-75
2021/11/12 15:21:20;;;;;;;24.10;11.50;;;9.40;93.90;;;;;;4995036;28;20026;-75
2021/11/12 15:24:02;;;;;;;20.83;11.48;;;9.40;93.90;;;;;;4995084;28;20109;-75
2021/11/12 15:32:11;;;;;;;23.00;11.25;;;9.30;93.90;;;;;;5033066;28;20075;-74
2021/11/12 15:34:41;;;;;;;22.58;10.95;;;9.30;94.00;;;;;;5016190;28;20589;-75
2021/11/12 15:37:11;;;;;;;25.50;12.43;;;9.30;94.10;;;;;;5049645;28;20026;-74
2021/11/12 15:44:52;;;;;;;23.25;11.13;;;9.20;94.20;;;;;;5032894;28;20061;-74
2021/11/12 15:49:44;;;;;;;23.80;12.27;;;9.20;94.20;;;;;;5033121;28;20175;-74
2021/11/12 15:52:14;;;;;;;30.88;12.82;;;9.10;94.20;;;;;;5016193;28;20438;-75
2021/11/12 15:59:57;;;;;;;21.08;10.32;;;9.10;94.40;;;;;;5022264;28;20064;-74
2021/11/12 16:08:06;;;;;;;21.92;11.25;;;9.00;94.70;;;;;;4995451;28;20088;-74
2021/11/12 16:13:09;;;;;;;25.02;11.45;;;8.90;94.50;;;;;;4994100;28;20030;-74
2021/11/12 16:15:46;;;;;;;22.90;11.57;;;8.90;94.50;;;;;;4994997;28;20393;-74
2021/11/12 16:23:40;;;;;;;19.88;10.55;;;8.90;94.60;;;;;;4995251;28;20041;-74
2021/11/12 16:26:16;;;;;;;19.80;9.95;;;8.90;94.60;;;;;;4993967;28;20026;-75
2021/11/12 16:31:29;;;;;;;23.77;12.25;;;8.90;94.60;;;;;;4994723;28;20065;-75
2021/11/12 16:33:58;;;;;;;21.83;10.93;;;8.90;94.70;;;;;;4993829;28;20150;-74
2021/11/12 16:36:24;;;;;;;20.35;10.52;;;8.90;94.70;;;;;;4994549;28;20025;-74
2021/11/12 16:38:50;;;;;;;24.25;11.82;;;8.90;94.70;;;;;;4994844;28;20113;-75
2021/11/12 16:41:21;;;;;;;22.10;11.38;;;8.90;94.70;;;;;;4993597;28;20027;-74
2021/11/12 16:44:03;;;;;;;24.73;11.52;;;8.90;94.70;;;;;;4993672;28;20387;-74
2021/11/12 16:54:14;;;;;;;20.85;10.05;;;8.90;95.00;;;;;;4994574;28;20482;-74
2021/11/12 16:59:28;;;;;;;21.42;9.65;;;8.90;94.80;;;;;;4994312;28;20109;-74
2021/11/12 17:07:07;;;;;;;17.83;9.10;;;9.00;94.80;;;;;;4994092;28;20118;-74
2021/11/12 17:18:17;;;;;;;24.90;10.23;;;9.00;94.80;;;;;;5031057;28;20077;-74
2021/11/12 17:48:07;;;;;;;19.33;9.43;;;8.90;95.00;;;;;;4993528;28;20038;-74
2021/11/12 17:50:43;;;;;;;16.90;8.90;;;8.90;95.10;;;;;;5024671;28;20022;-74
2021/11/12 17:53:36;;;;;;;20.80;10.80;;;8.90;95.10;;;;;;4993649;28;20130;-74
2021/11/12 18:04:57;;;;;;;17.52;9.43;;;8.90;95.10;;;;;;4993510;28;20095;-74
2021/11/12 18:07:09;;;;;;;19.70;9.77;;;9.00;95.10;;;;;;4995109;28;20121;-74
2021/11/12 21:45:28;;;;;;;11.50;6.07;;;10.20;94.70;;;;;;4993958;28;20034;-74
2021/11/12 21:47:53;;;;;;;8.98;5.05;;;10.10;94.70;;;;;;4992557;28;20113;-74
2021/11/12 21:50:19;;;;;;;10.90;5.70;;;10.20;94.80;;;;;;4992547;28;20463;-75
2021/11/12 21:52:45;;;;;;;13.27;7.03;;;10.20;94.80;;;;;;4991967;28;20018;-73
2021/11/12 21:55:10;;;;;;;12.68;6.60;;;10.20;94.80;;;;;;4993723;28;20378;-74
2021/11/12 21:57:36;;;;;;;14.02;6.60;;;10.20;94.80;;;;;;4993085;28;20054;-74
2021/11/12 22:00:05;;;;;;;12.30;6.35;;;10.20;94.80;;;;;;4991749;28;20386;-74
2021/11/12 22:02:31;;;;;;;11.23;6.45;;;10.20;94.80;;;;;;5024557;28;20030;-74
2021/11/12 22:04:57;;;;;;;15.25;7.05;;;10.20;94.80;;;;;;4992554;28;20026;-74
2021/11/12 22:07:22;;;;;;;11.43;6.38;;;10.20;94.90;;;;;;5024791;28;20022;-74
2021/11/12 22:09:48;;;;;;;14.30;7.20;;;10.20;94.90;;;;;;4992882;28;20026;-74
2021/11/12 22:12:14;;;;;;;13.82;7.40;;;10.30;94.90;;;;;;4992205;28;20109;-74
2021/11/12 22:14:40;;;;;;;13.73;7.10;;;10.30;94.90;;;;;;4993402;28;20494;-74
2021/11/12 22:17:06;;;;;;;13.13;6.97;;;10.30;94.90;;;;;;4992808;28;20077;-74
2021/11/12 22:19:32;;;;;;;10.85;6.55;;;10.30;94.90;;;;;;5024856;28;20077;-74
2021/11/12 22:21:57;;;;;;;13.57;7.03;;;10.30;94.90;;;;;;5024136;28;20038;-75
2021/11/12 22:24:23;;;;;;;19.75;8.50;;;10.30;95.00;;;;;;4993153;28;20033;-74
2021/11/12 22:26:50;;;;;;;19.65;8.02;;;10.30;95.00;;;;;;5024279;28;20026;-75
2021/11/12 22:29:16;;;;;;;13.77;7.72;;;10.40;95.00;;;;;;4993117;28;20026;-74
2021/11/12 22:31:42;;;;;;;13.82;7.35;;;10.40;95.00;;;;;;4993042;28;20060;-74
2021/11/12 22:34:08;;;;;;;15.57;7.95;;;10.40;95.00;;;;;;4992089;28;20057;-74
2021/11/12 22:36:34;;;;;;;16.48;8.38;;;10.40;95.10;;;;;;4991803;28;20022;-74
2021/11/12 22:39:00;;;;;;;15.43;7.82;;;10.40;95.10;;;;;;4991292;28;20362;-74
2021/11/12 22:41:25;;;;;;;14.70;8.40;;;10.50;95.10;;;;;;4993009;28;20069;-74
2021/11/12 22:43:59;;;;;;;12.32;6.55;;;10.50;95.10;;;;;;4992178;28;20030;-74
2021/11/12 22:46:26;;;;;;;13.93;7.28;;;10.50;95.10;;;;;;4992932;28;20026;-74
2021/11/12 22:48:53;;;;;;;14.50;7.43;;;10.50;95.10;;;;;;4991066;28;20467;-73
2021/11/12 22:51:18;;;;;;;13.25;7.05;;;10.50;95.10;;;;;;4991616;28;20034;-75
2021/11/12 22:53:44;;;;;;;15.68;8.23;;;10.50;95.10;;;;;;4992881;28;20022;-74
2021/11/12 22:56:10;;;;;;;17.60;8.15;;;10.50;95.10;;;;;;4992458;28;20030;-74
2021/11/12 22:58:35;;;;;;;16.33;8.23;;;10.50;95.10;;;;;;4992929;28;20042;-74